createdAt,value
2022-11-12T00:00:16.943Z,100991.28
2022-11-12T00:03:02.628Z,100996.53
2022-11-12T00:05:51.506Z,100993.91
2022-11-12T00:08:37.263Z,100998.25
2022-11-12T00:11:22.737Z,100992.16
2022-11-12T00:14:08.372Z,100996.53
2022-11-12T00:16:53.685Z,100990.41
2022-11-12T00:19:39.276Z,100990.41
2022-11-12T00:22:24.791Z,100993.91
2022-11-12T00:25:10.610Z,100987.78
2022-11-12T00:28:02.374Z,100988.66
2022-11-12T00:30:48.220Z,100991.28
2022-11-12T00:33:33.485Z,100992.19
2022-11-12T00:36:19.044Z,100986.97
2022-11-12T00:39:04.961Z,100982.59
2022-11-12T00:41:50.686Z,100993.94
2022-11-12T00:44:36.030Z,100993.09
2022-11-12T00:47:21.432Z,100996.56
2022-11-12T00:50:07.892Z,101000.97
2022-11-12T00:52:54.662Z,100998.34
2022-11-12T00:55:40.186Z,100998.38
2022-11-12T00:58:25.730Z,100995.75
2022-11-12T01:01:14.154Z,100993.09
2022-11-12T01:04:00.499Z,100992.25
2022-11-12T01:06:45.922Z,100984.41
2022-11-12T01:09:31.690Z,100990.50
2022-11-12T01:12:17.063Z,100989.66
2022-11-12T01:15:02.772Z,100989.69
2022-11-12T01:17:48.200Z,100988.78
2022-11-12T01:20:33.789Z,100990.56
2022-11-12T01:23:19.511Z,100992.31
2022-11-12T01:26:07.167Z,100986.19
2022-11-12T01:28:53.290Z,100985.34
2022-11-12T01:31:38.897Z,100970.47
2022-11-12T01:34:26.065Z,100976.56
2022-11-12T01:37:11.924Z,100970.47
2022-11-12T01:39:57.323Z,100973.09
2022-11-12T01:42:43.028Z,100975.69
2022-11-12T01:45:29.162Z,100983.56
2022-11-12T01:48:27.959Z,100982.72
2022-11-12T01:51:15.455Z,100983.56
2022-11-12T01:54:05.569Z,100987.94
2022-11-12T01:56:51.643Z,100985.31
2022-11-12T01:59:44.150Z,100969.59
2022-11-12T02:02:30.653Z,100979.22
2022-11-12T02:05:18.394Z,100981.81
2022-11-12T02:08:06.165Z,100979.19
2022-11-12T02:10:52.003Z,100971.31
2022-11-12T02:13:56.532Z,100964.31
2022-11-12T02:16:45.367Z,100959.97
2022-11-12T02:19:30.717Z,100949.47
2022-11-12T02:22:16.338Z,100950.31
2022-11-12T02:25:01.677Z,100942.47
2022-11-12T02:27:52.001Z,100943.34
2022-11-12T02:30:46.893Z,100964.34
2022-11-12T02:33:32.444Z,100953.84
2022-11-12T02:36:18.136Z,100956.47
2022-11-12T02:39:05.966Z,100950.31
2022-11-12T02:41:51.442Z,100963.44
2022-11-12T02:44:37.342Z,100962.50
2022-11-12T02:47:22.984Z,100959.88
2022-11-12T02:50:08.992Z,100955.47
2022-11-12T02:52:54.394Z,100959.81
2022-11-12T02:55:40.017Z,100958.00
2022-11-12T02:58:25.917Z,100955.34
2022-11-12T03:01:11.763Z,100958.78
2022-11-12T03:03:57.397Z,100957.91
2022-11-12T03:06:42.837Z,100965.78
2022-11-12T03:09:28.522Z,100959.63
2022-11-12T03:12:14.127Z,100960.53
2022-11-12T03:14:59.503Z,100959.63
2022-11-12T03:17:45.106Z,100969.25
2022-11-12T03:20:30.659Z,100959.63
2022-11-12T03:23:15.936Z,100958.78
2022-11-12T03:26:05.479Z,100958.78
2022-11-12T03:28:51.889Z,100961.41
2022-11-12T03:31:37.405Z,100960.47
2022-11-12T03:34:22.815Z,100965.72
2022-11-12T03:37:09.713Z,100973.56
2022-11-12T03:39:55.354Z,100963.00
2022-11-12T03:42:48.773Z,100962.13
2022-11-12T03:45:34.536Z,100963.81
2022-11-12T03:48:19.896Z,100962.00
2022-11-12T03:51:05.502Z,100951.50
2022-11-12T03:53:50.979Z,100955.84
2022-11-12T06:01:19.651Z,100983.59
2022-11-12T06:04:04.335Z,100991.44
2022-11-12T06:06:50.459Z,100987.88
2022-11-12T06:09:36.465Z,100978.09
2022-11-12T06:12:22.403Z,100974.38
2022-11-12T06:15:08.846Z,100963.53
2022-11-12T06:17:55.167Z,100966.69
2022-11-12T06:20:41.206Z,100964.56
2022-11-12T06:23:27.083Z,100962.41
2022-11-12T06:26:12.518Z,100962.00
2022-11-12T06:28:57.991Z,100965.84
2022-11-12T06:31:43.786Z,100964.50
2022-11-12T06:34:29.240Z,100956.91
2022-11-12T06:37:16.109Z,100955.56
2022-11-12T06:40:02.286Z,100947.13
2022-11-12T06:42:48.069Z,100950.19
2022-11-12T06:45:33.776Z,100938.56
2022-11-12T06:48:19.390Z,100936.53
2022-11-12T06:51:22.521Z,100930.72
2022-11-12T06:54:08.454Z,100930.19
2022-11-12T06:56:54.729Z,100917.88
2022-11-12T06:59:40.334Z,100917.84
2022-11-12T07:02:26.093Z,100914.41
2022-11-12T07:05:11.927Z,100921.53
2022-11-12T07:07:57.599Z,100921.44
2022-11-12T07:10:43.509Z,100915.06
2022-11-12T07:13:34.045Z,100913.75
2022-11-12T07:16:20.018Z,100919.13
2022-11-12T07:19:05.626Z,100919.81
2022-11-12T07:21:51.780Z,100914.56
2022-11-12T07:24:37.616Z,100914.56
2022-11-12T07:27:23.228Z,100916.94
2022-11-12T07:30:09.140Z,100913.03
2022-11-12T07:32:58.488Z,100904.44
2022-11-12T07:35:44.488Z,100891.38
2022-11-12T07:38:32.070Z,100889.50
2022-11-12T07:41:25.271Z,100885.91
2022-11-12T07:44:10.838Z,100883.66
2022-11-12T07:46:56.667Z,100884.38
2022-11-12T07:49:42.640Z,100887.00
2022-11-12T07:52:28.742Z,100899.66
2022-11-12T07:55:14.498Z,100892.50
2022-11-12T07:58:00.476Z,100893.34
2022-11-12T08:00:45.907Z,100906.06
2022-11-12T08:03:31.882Z,100912.75
2022-11-12T08:06:17.282Z,100921.09
2022-11-12T08:09:06.777Z,100913.56
2022-11-12T08:11:54.569Z,100903.09
2022-11-12T08:14:40.601Z,100908.50
2022-11-12T08:17:25.897Z,100915.91
2022-11-12T08:20:13.068Z,100918.16
2022-11-12T08:23:01.392Z,100920.38
2022-11-12T08:25:46.859Z,100915.03
2022-11-12T08:28:34.085Z,100922.69
2022-11-12T08:31:22.986Z,100918.81
2022-11-12T08:34:17.437Z,100918.75
2022-11-12T08:37:07.853Z,100930.63
2022-11-12T08:39:53.735Z,100933.41
2022-11-12T08:42:39.390Z,100926.63
2022-11-12T08:45:25.457Z,100928.69
2022-11-12T08:48:14.480Z,100935.25
2022-11-12T08:51:05.078Z,100926.03
2022-11-12T08:53:50.800Z,100925.25
2022-11-12T08:56:36.661Z,100917.88
2022-11-12T08:59:22.181Z,100909.16
2022-11-12T09:02:12.879Z,100909.28
2022-11-12T09:04:58.374Z,100907.16
2022-11-12T09:07:49.958Z,100906.66
2022-11-12T09:10:37.227Z,100897.56
2022-11-12T09:13:22.811Z,100885.59
2022-11-12T09:16:10.516Z,100876.69
2022-11-12T09:18:56.281Z,100872.91
2022-11-12T09:21:41.827Z,100885.94
2022-11-12T09:24:27.487Z,100877.19
2022-11-12T09:27:13.024Z,100888.00
2022-11-12T09:29:58.405Z,100882.34
2022-11-12T09:32:44.011Z,100877.63
2022-11-12T09:35:30.286Z,100874.94
2022-11-12T09:38:16.496Z,100874.94
2022-11-12T09:41:17.800Z,100863.03
2022-11-12T09:44:09.053Z,100872.03
2022-11-12T09:47:02.857Z,100875.59
2022-11-12T09:49:57.689Z,100877.78
2022-11-12T09:52:49.047Z,100865.16
2022-11-12T09:55:39.358Z,100876.88
2022-11-12T09:58:26.130Z,100880.13
2022-11-12T10:01:15.116Z,100881.94
2022-11-12T10:04:48.817Z,100874.94
2022-11-12T10:07:51.488Z,100885.19
2022-11-12T10:10:47.833Z,100877.53
2022-11-12T16:35:19.708Z,100800.47
2022-11-12T16:38:13.755Z,100806.31
2022-11-12T16:40:59.324Z,100805.88
2022-11-12T16:43:47.459Z,100802.81
2022-11-12T16:46:40.309Z,100801.47
2022-11-12T16:49:26.626Z,100804.47
2022-11-12T16:52:12.587Z,100801.44
2022-11-12T16:55:04.133Z,100800.38
2022-11-12T16:57:50.728Z,100808.88
2022-11-12T17:00:37.360Z,100812.09
2022-11-12T17:03:23.139Z,100807.34
2022-11-12T17:06:09.552Z,100797.50
2022-11-12T17:08:55.412Z,100807.28
2022-11-12T17:11:41.312Z,100802.88
2022-11-12T17:14:28.669Z,100794.66
2022-11-12T17:17:15.195Z,100796.44
2022-11-12T17:20:01.942Z,100791.03
2022-11-12T17:22:48.110Z,100788.34
2022-11-12T17:25:34.483Z,100802.56
2022-11-12T17:28:20.290Z,100801.63
2022-11-12T17:31:13.145Z,100806.22
2022-11-12T17:33:59.055Z,100803.56
2022-11-12T17:36:45.143Z,100811.50
2022-11-12T17:39:31.594Z,100805.34
2022-11-12T17:42:17.779Z,100815.19
2022-11-12T17:45:03.816Z,100812.59
2022-11-12T17:47:49.771Z,100819.66
2022-11-12T17:50:35.783Z,100825.00
2022-11-12T17:53:21.846Z,100821.75
2022-11-12T17:56:09.324Z,100821.75
2022-11-12T17:58:55.349Z,100824.44
2022-11-12T18:01:41.110Z,100823.44
2022-11-12T18:04:30.775Z,100820.94
2022-11-12T18:07:17.045Z,100824.44
2022-11-12T18:10:02.922Z,100826.31
2022-11-12T22:30:20.067Z,100813.16
2022-11-12T22:33:05.710Z,100816.81
2022-11-12T22:35:52.176Z,100821.19
2022-11-12T22:38:40.697Z,100821.88
2022-11-12T22:41:28.890Z,100821.09
2022-11-12T22:44:16.875Z,100825.41
2022-11-12T22:47:02.490Z,100825.41
2022-11-12T22:49:48.608Z,100829.22
2022-11-12T22:52:34.186Z,100831.19
2022-11-12T22:55:20.689Z,100833.03
2022-11-12T22:58:07.109Z,100835.84
2022-11-12T23:00:53.070Z,100831.38
2022-11-12T23:03:38.974Z,100837.75
2022-11-12T23:06:25.979Z,100835.16
2022-11-12T23:09:16.620Z,100847.59
2022-11-12T23:12:02.460Z,100844.94
2022-11-12T23:14:48.043Z,100845.91
2022-11-12T23:17:34.192Z,100839.75
2022-11-12T23:20:19.951Z,100838.03
2022-11-12T23:23:05.610Z,100840.72
2022-11-12T23:25:51.341Z,100843.47
2022-11-12T23:28:37.760Z,100844.44
2022-11-12T23:31:27.978Z,100846.16
2022-11-12T23:34:13.667Z,100848.88
2022-11-12T23:36:59.282Z,100858.53
2022-11-12T23:39:45.361Z,100855.97
2022-11-12T23:42:31.329Z,100854.88
2022-11-12T23:45:17.228Z,100845.28
2022-11-12T23:48:03.296Z,100841.69
2022-11-12T23:50:50.053Z,100844.44
2022-11-12T23:53:37.155Z,100846.22
2022-11-12T23:56:23.137Z,100851.44
2022-11-12T23:59:09.031Z,100848.81
